Terminal Aerodrome Forecast
Issued by NWS

Home | Current Version | Previous Version | Text Only | Print | Product List | Glossary On
Versions: 1 2 3 4 5 6 7 8 9 10 11 12 13 14 15 16 17 18 19 20 21 22 23
896
FTUS43 KGRR 261324 AAA
TAFJXN
TAF AMD
KJXN 261324Z 2613/2712 11004KT P6SM VCSH FEW006 BKN070 OVC090
     FM261500 14008KT P6SM SCT018 BKN120 BKN250
     FM261800 17009KT 4SM -RA BR OVC012
     FM262100 21007KT 6SM -RA OVC015
     FM270200 22005KT 4SM BR OVC007
     FM270800 25008KT 1/2SM FG VV001=

USA.gov is the U.S. government's official web portal to all federal, state and local government web resources and services.